Nearby METAR Reports

 

K8A0 - Albertville Muni, Alabama, USA
Distance from station: SW 1mi, 2km
Updated: 03/24/2019 3:15pm
Clear
Clear
 Wind from SSE
Wind: SSE 9 mph , 15 km/h
Temperature: 72°F , 22°C
Dew Point: 32°F , 0°C
Humidity: 23%
Barometer: 30.13 inHg , 1020.3 hPa
Clouds: Clear
Visibility: 10 miles , 16 km
2019/03/24 20:15 K8A0 242015Z AUTO 15008KT 10SM CLR 22/00 A3013 RMK AO2
KGAD - Gadsden Muni, Alabama, USA
Distance from station: SSE 21mi, 35km
Updated: 03/24/2019 2:56pm
Clear
Clear
 Wind from varies
Wind: varies 7 mph , 11 km/h
Temperature: 73°F , 23°C
Dew Point: 37°F , 3°C
Humidity: 27%
Barometer: 30.15 inHg , 1021 hPa
Clouds: Clear
Visibility: 10 miles , 16 km
2019/03/24 19:56 KGAD 241956Z AUTO VRB06KT 10SM CLR 23/03 A3015 RMK AO2 SLP211 T02330033
 
K4A6 - Scottsboro, Alabama, USA
Distance from station: NNE 33mi, 53km
Updated: 03/24/2019 3:15pm
Clear
Clear
 Wind from SW
Wind: SW 8 mph , 13 km/h, Gust: 17 mph , 28 km/h
Temperature: 73°F , 23°C
Dew Point: 36°F , 2°C
Humidity: 25%
Barometer: 30.13 inHg , 1020.3 hPa
Clouds: Clear
Visibility: 10 miles , 16 km
2019/03/24 20:15 K4A6 242015Z AUTO 22007G15KT 200V260 10SM CLR 23/02 A3013 RMK AO2
K4A9 - Ft Payne/Isbell, Alabama, USA
Distance from station: ENE 33mi, 54km
Updated: 03/24/2019 3:15pm
Clear
Clear
 Wind from WSW
Wind: WSW 16 mph , 26 km/h
Temperature: 73°F , 23°C
Dew Point: 36°F , 2°C
Humidity: 25%
Barometer: 30.13 inHg , 1020.3 hPa
Clouds: Clear
Visibility: 10 miles , 16 km
2019/03/24 20:15 K4A9 242015Z AUTO 24014KT 10SM CLR 23/02 A3013 RMK AO2 T02250020
 
KCMD - Cullman/Folsom F, Alabama, USA
Distance from station: W 35mi, 57km
Updated: 03/24/2019 3:15pm
Clear
Clear
 Wind from S
Wind: S 12 mph , 19 km/h, Gust: 20 mph , 31 km/h
Temperature: 70°F , 21°C
Dew Point: 34°F , 1°C
Humidity: 27%
Barometer: 30.15 inHg , 1021 hPa
Clouds: Clear
Visibility: 10 miles , 16 km
2019/03/24 20:15 KCMD 242015Z AUTO 19010G17KT 10SM CLR 21/01 A3015 RMK AO2 T02120009
KHUA - Redstone Arsenal, Alabama, USA
Distance from station: NW 40mi, 64km
Updated: 03/24/2019 2:58pm
Overcast
Overcast
 Wind from WSW
Wind: WSW 9 mph , 15 km/h, Gust: 18 mph , 30 km/h
Temperature: 72°F , 22°C
Dew Point: 37°F , 3°C
Humidity: 29%
Barometer: 30.11 inHg , 1019.6 hPa
Clouds: Overcast
Visibility: 10 miles , 16 km
Cloud details: Overcast 10000 ft
2019/03/24 19:58 KHUA 241958Z AUTO 25008G16KT 10SM OVC100 22/03 A3011 RMK AO2 SLP196 T02160027
 
KHSV - Huntsville, Alabama, USA
Distance from station: NW 42mi, 68km
Updated: 03/24/2019 2:53pm
Mostly cloudy
Mostly cloudy
 Wind from SW
Wind: SW 13 mph , 20 km/h
Temperature: 72°F , 22°C
Dew Point: 37°F , 3°C
Humidity: 29%
Barometer: 30.12 inHg , 1020 hPa
Clouds: Mostly cloudy
Visibility: 10 miles , 16 km
Cloud details: Mostly cloudy 10000 ft
2019/03/24 19:53 KHSV 241953Z 23011KT 10SM BKN100 22/03 A3012 RMK AO2 SLP196 T02170033 $
KMDQ - Huntsville/Madis, Alabama, USA
Distance from station: NNW 47mi, 75km
Updated: 03/24/2019 3:15pm
Light rain, Overcast
Light rain, Overcast
 Wind from SSW
Wind: SSW 9 mph , 15 km/h
Temperature: 68°F , 20°C
Dew Point: 37°F , 3°C
Humidity: 33%
Barometer: 30.12 inHg , 1020 hPa
Summary: Light rain
Clouds: Overcast
Visibility: 10 miles , 16 km
Cloud details: Partly cloudy 3500 ft
Partly cloudy 4900 ft
Overcast 9000 ft
2019/03/24 20:15 KMDQ 242015Z AUTO 21008KT 10SM -RA SCT035 SCT049 OVC090 20/03 A3012 RMK A02 T02000031
 
KASN - Talladega, Alabama, USA
Distance from station: SSE 48mi, 77km
Updated: 03/24/2019 3:15pm
Clear
Clear
 Wind from SSW
Wind: SSW 6 mph , 9 km/h
Temperature: 75°F , 24°C
Dew Point: 39°F , 4°C
Humidity: 27%
Barometer: 30.14 inHg , 1020.7 hPa
Clouds: Clear
Visibility: 10 miles , 16 km
2019/03/24 20:15 KASN 242015Z AUTO 21005KT 10SM CLR 24/04 A3014 RMK AO2 T02370042
KDCU - Decatur, Alabama, USA
Distance from station: NW 49mi, 80km
Updated: 03/24/2019 2:53pm
Light rain, Overcast
Light rain, Overcast
 Wind from S
Wind: S 9 mph , 15 km/h
Temperature: 70°F , 21°C
Dew Point: 39°F , 4°C
Humidity: 33%
Barometer: 30.12 inHg , 1020 hPa
Summary: Light rain
Clouds: Overcast
Visibility: 10 miles , 16 km
Cloud details: Few Clouds 6000 ft
Overcast 9000 ft
2019/03/24 19:53 KDCU 241953Z AUTO 19008KT 10SM -RA FEW060 OVC090 21/04 A3012 RMK AO2 RAB50 SLP199 P0000 T02060039
 
KGKT - Sevierville, Tennessee, USA
Distance from station: NE 235mi, 378km
Updated: 03/24/2019 3:15pm
Clear
Clear
 Wind from W
Wind: W 8 mph , 13 km/h, Gust: 15 mph , 24 km/h
Temperature: 72°F , 22°C
Dew Point: 32°F , 0°C
Humidity: 23%
Barometer: 30.12 inHg , 1020 hPa
Clouds: Clear
Visibility: 10 miles , 16 km
2019/03/24 20:15 KGKT 242015Z AUTO 28007G13KT 10SM CLR 22/M00 A3012 RMK A01
KECP - Panama City, Florida, USA
Distance from station: S 330mi, 531km
Updated: 03/24/2019 2:53pm
Clear
Clear
 Wind from S
Wind: S 13 mph , 20 km/h
Temperature: 72°F , 22°C
Dew Point: 46°F , 8°C
Humidity: 41%
Barometer: 30.19 inHg , 1022.4 hPa
Clouds: Clear
Visibility: 10 miles , 16 km
2019/03/24 19:53 KECP 241953Z 19011KT 10SM CLR 22/08 A3019 RMK AO2 SLP233 T02220083
 
KNYL - Yuma MCAS, Arizona, USA
Distance from station: SW 1900mi, 3600km
Updated: 03/24/2019 2:57pm
Clear
Clear
 Wind from NE
Wind: NE 8 mph , 13 km/h
Temperature: 77°F , 25°C
Dew Point: 34°F , 1°C
Humidity: 21%
Barometer: 30.12 inHg , 1020 hPa
Clouds: Clear
Visibility: 10 miles , 16 km
2019/03/24 19:57 KNYL 241957Z AUTO 05007KT 10SM CLR 25/01 A3012 RMK AO2 SLP197 T02500006 $